Time;durP1;ratioP1;P1;durP2;ratioP2;P2;SDS_P1;SDS_P2;PMS_P1;PMS_P2;Temp;Humidity;BMP_temperature;BMP_pressure;BME280_temperature;BME280_humidity;BME280_pressure;Samples;Min_cycle;Max_cycle;Signal;HPM_P1;HPM_P2
2022/11/16 00:02:38;;;;;;;11.55;5.30;;;;;;;-1.57;77.99;100763.75;10543916;28;20548;-72
2022/11/16 00:07:39;;;;;;;10.70;4.95;;;;;;;-1.05;77.66;100854.84;10543928;28;20395;-72
2022/11/16 00:12:40;;;;;;;6.72;4.47;;;;;;;-1.40;77.99;100795.84;10543567;28;20055;-72
2022/11/16 00:17:41;;;;;;;8.50;4.85;;;;;;;-1.27;77.92;100814.28;10543068;28;20043;-72
2022/11/16 00:22:41;;;;;;;8.93;4.82;;;;;;;-1.81;78.31;100716.41;10542687;28;20040;-72
2022/11/16 00:27:42;;;;;;;8.10;4.40;;;;;;;-1.22;78.54;100817.47;10542518;28;20508;-72
2022/11/16 00:32:43;;;;;;;9.75;5.20;;;;;;;-1.46;78.79;100775.31;10553648;28;20044;-72
2022/11/16 00:37:44;;;;;;;9.93;4.28;;;;;;;-1.38;78.57;100782.72;10542794;28;20065;-72
2022/11/16 00:42:44;;;;;;;9.05;4.65;;;;;;;-1.29;78.61;100769.19;10542741;28;20060;-72
2022/11/16 00:47:45;;;;;;;17.27;5.05;;;;;;;-1.28;78.09;100770.06;10541919;28;20036;-72
2022/11/16 00:52:46;;;;;;;9.68;4.43;;;;;;;-1.23;78.11;100763.66;10541584;28;20563;-72
2022/11/16 00:57:47;;;;;;;8.50;4.47;;;;;;;-1.73;77.58;100685.59;10541742;28;20036;-72
2022/11/16 01:02:48;;;;;;;8.27;4.25;;;;;;;-1.43;78.01;100743.03;10541021;28;20036;-72
2022/11/16 01:07:50;;;;;;;11.27;4.50;;;;;;;-1.34;78.57;100759.97;10541281;28;20495;-72
2022/11/16 01:12:51;;;;;;;5.80;3.75;;;;;;;-1.56;78.25;100727.19;10522440;28;20043;-72
2022/11/16 01:17:54;;;;;;;6.55;3.72;;;;;;;-1.59;78.43;100714.34;10541441;28;20036;-72
2022/11/16 01:22:55;;;;;;;7.40;4.28;;;;;;;-1.98;78.10;100658.22;10540689;28;20035;-72
2022/11/16 01:27:56;;;;;;;7.22;4.03;;;;;;;-1.45;78.61;100743.09;10539835;28;20044;-72
2022/11/16 01:32:57;;;;;;;7.57;4.07;;;;;;;-1.64;77.95;100698.13;10539761;28;20516;-73
2022/11/16 01:37:57;;;;;;;8.07;4.25;;;;;;;-1.58;78.21;100713.44;10539405;28;20047;-72
2022/11/16 01:42:58;;;;;;;11.38;4.30;;;;;;;-1.43;78.31;100723.03;10539930;28;20040;-72
2022/11/16 01:47:59;;;;;;;9.63;4.38;;;;;;;-1.96;77.76;100630.34;10539498;28;20036;-72
2022/11/16 01:53:04;;;;;;;7.72;4.25;;;;;;;-1.35;77.98;100729.59;10539046;28;20075;-72
2022/11/16 01:58:06;;;;;;;7.05;4.00;;;;;;;-1.98;77.45;100624.38;10539242;28;20081;-72
2022/11/16 02:03:07;;;;;;;7.13;4.10;;;;;;;-1.46;77.74;100727.56;10559810;28;20118;-72
2022/11/16 02:14:13;;;;;;;11.05;3.83;;;;;;;-2.01;78.18;100618.50;10580739;28;20124;-72
2022/11/16 02:19:47;;;;;;;8.07;4.30;;;;;;;-1.44;78.58;100708.31;10581782;28;20040;-72
2022/11/16 02:25:06;;;;;;;8.63;3.80;;;;;;;-1.90;77.75;100637.81;10580563;28;20039;-72
2022/11/16 02:30:08;;;;;;;9.30;3.90;;;;;;;-1.55;78.12;100694.19;10573082;28;20043;-72
2022/11/16 02:35:20;;;;;;;8.02;3.95;;;;;;;-1.50;78.55;100695.59;10543121;28;20044;-72
2022/11/16 02:40:24;;;;;;;9.88;3.50;;;;;;;-1.49;78.22;100699.91;10537893;28;20058;-72
2022/11/16 02:45:30;;;;;;;9.35;3.75;;;;;;;-1.48;78.51;100696.38;10538110;28;20412;-72
2022/11/16 02:50:32;;;;;;;6.68;3.20;;;;;;;-1.61;78.30;100687.53;10519028;28;20075;-72
2022/11/16 02:55:35;;;;;;;10.07;4.13;;;;;;;-1.51;77.92;100699.13;10537061;28;20048;-72
2022/11/16 03:00:47;;;;;;;5.50;3.47;;;;;;;-2.19;78.09;100569.06;10560603;28;20444;-73
2022/11/16 03:05:53;;;;;;;16.45;4.13;;;;;;;-2.11;78.60;100577.31;10578829;28;20411;-72
2022/11/16 03:16:30;;;;;;;8.13;3.60;;;;;;;-2.46;78.08;100503.72;10569949;28;20042;-72
2022/11/16 03:21:40;;;;;;;7.53;3.08;;;;;;;-1.48;78.42;100669.47;10544990;28;20077;-72
2022/11/16 03:26:57;;;;;;;8.52;3.33;;;;;;;-1.44;78.34;100668.38;10544157;28;20090;-72
2022/11/16 03:32:13;;;;;;;11.48;3.40;;;;;;;-1.47;78.16;100661.56;10544256;28;20046;-72
2022/11/16 03:37:14;;;;;;;6.95;3.10;;;;;;;-1.88;78.11;100603.91;10543679;28;20036;-72
2022/11/16 03:42:16;;;;;;;9.07;3.65;;;;;;;-1.72;78.32;100620.38;10568977;28;20063;-72
2022/11/16 03:47:17;;;;;;;6.25;3.13;;;;;;;-1.66;77.94;100627.03;10573700;28;20036;-71
2022/11/16 03:52:18;;;;;;;12.88;3.40;;;;;;;-1.73;78.10;100620.47;10567130;28;20551;-72
2022/11/16 03:57:19;;;;;;;5.60;3.60;;;;;;;-1.62;78.80;100626.75;10556542;28;20093;-72
2022/11/16 04:02:20;;;;;;;9.35;4.20;;;;;;;-1.70;78.46;100617.72;10567908;28;20050;-72
2022/11/16 04:28:41;;;;;;;7.60;4.40;;;;;;;-1.33;77.55;100576.59;10577882;28;20118;-72
2022/11/16 04:39:02;;;;;;;6.05;3.42;;;;;;;-0.94;77.25;100597.78;10584776;28;20112;-72
2022/11/16 04:44:03;;;;;;;14.07;4.25;;;;;;;-0.80;77.27;100588.34;10581994;28;20487;-72
2022/11/16 04:49:05;;;;;;;11.80;4.38;;;;;;;-0.46;76.19;100585.41;10545176;28;20105;-71
2022/11/16 04:54:06;;;;;;;7.85;3.53;;;;;;;-0.30;75.84;100572.28;10573311;28;20058;-72
2022/11/16 04:59:07;;;;;;;11.02;4.18;;;;;;;0.09;75.28;100596.91;10575497;28;20166;-72
2022/11/16 05:04:08;;;;;;;19.45;4.43;;;;;;;0.39;75.03;100598.50;10569153;28;20519;-72
2022/11/16 05:09:09;;;;;;;6.03;3.70;;;;;;;0.59;74.54;100611.16;10537586;27;20055;-70
2022/11/16 05:14:10;;;;;;;7.05;4.10;;;;;;;0.40;74.01;100516.56;10615818;27;20054;-74
2022/11/16 05:24:33;;;;;;;12.23;3.92;;;;;;;1.35;73.27;100604.50;10540539;28;20039;-70
2022/11/16 05:29:34;;;;;;;8.00;3.00;;;;;;;1.07;72.39;100516.53;10540409;28;20044;-71
2022/11/16 05:34:35;;;;;;;7.85;3.85;;;;;;;1.67;72.52;100575.28;10540174;28;20051;-70
2022/11/16 05:39:35;;;;;;;7.63;3.80;;;;;;;1.91;71.92;100584.06;10539412;28;20558;-71
2022/11/16 05:44:36;;;;;;;7.47;3.42;;;;;;;1.07;71.50;100410.09;10540586;28;20044;-71
2022/11/16 05:49:37;;;;;;;4.97;3.85;;;;;;;2.14;71.16;100551.03;10539305;28;20044;-69
2022/11/16 05:54:38;;;;;;;7.63;4.10;;;;;;;2.49;70.90;100552.91;10521441;28;20122;-72
2022/11/16 05:59:39;;;;;;;8.95;4.28;;;;;;;2.70;70.11;100553.16;10539090;28;20036;-70
2022/11/16 06:04:39;;;;;;;13.65;3.90;;;;;;;2.85;70.56;100543.31;10550453;27;20043;-70
2022/11/16 06:09:40;;;;;;;6.53;3.90;;;;;;;2.57;69.60;100474.50;10561165;28;20047;-70
2022/11/16 06:14:41;;;;;;;14.82;4.38;;;;;;;2.78;69.85;100511.41;10532068;28;20044;-70
2022/11/16 06:19:42;;;;;;;8.00;4.13;;;;;;;3.01;70.20;100535.97;10538069;28;20500;-71
2022/11/16 06:24:43;;;;;;;16.75;4.53;;;;;;;3.16;69.95;100529.56;10537906;28;20127;-73
2022/11/16 06:29:43;;;;;;;8.68;4.43;;;;;;;3.39;69.24;100532.22;10538008;28;20043;-71
2022/11/16 06:34:44;;;;;;;12.18;4.72;;;;;;;3.30;68.85;100452.38;10563148;28;20039;-72
2022/11/16 06:39:45;;;;;;;5.85;4.28;;;;;;;3.88;68.72;100502.97;10582820;27;20043;-73
2022/11/16 06:44:46;;;;;;;14.57;4.57;;;;;;;3.95;68.65;100500.72;10554873;28;20055;-72
2022/11/16 06:49:46;;;;;;;10.90;5.00;;;;;;;4.02;68.66;100501.06;10567546;28;20055;-72
2022/11/16 06:54:47;;;;;;;11.27;5.07;;;;;;;4.01;68.85;100494.13;10533048;28;20036;-72
2022/11/16 06:59:48;;;;;;;10.88;5.22;;;;;;;4.25;69.02;100488.72;10536566;28;20050;-73
2022/11/16 07:04:49;;;;;;;8.05;5.75;;;;;;;4.51;68.42;100487.41;10536693;28;20458;-72
2022/11/16 07:09:49;;;;;;;12.05;6.07;;;;;;;4.67;67.19;100465.13;10557907;28;20047;-71
2022/11/16 07:14:50;;;;;;;9.50;5.53;;;;;;;4.73;67.88;100478.59;10580266;28;20122;-71
2022/11/16 07:19:51;;;;;;;11.05;5.50;;;;;;;4.82;68.40;100471.75;10578427;28;20043;-71
2022/11/16 07:24:51;;;;;;;9.52;5.82;;;;;;;5.07;67.84;100451.25;10579071;28;20674;-72
2022/11/16 07:29:52;;;;;;;13.30;6.18;;;;;;;5.23;67.26;100451.59;10578535;28;20119;-72
2022/11/16 07:34:53;;;;;;;12.65;6.47;;;;;;;5.39;67.44;100433.53;10579818;28;20035;-71
2022/11/16 07:39:54;;;;;;;14.32;5.75;;;;;;;4.94;67.92;100325.94;10578968;28;20051;-72
2022/11/16 07:44:55;;;;;;;13.20;6.35;;;;;;;5.42;67.80;100385.03;10578719;28;20064;-72
2022/11/16 07:49:55;;;;;;;11.65;6.35;;;;;;;5.60;68.06;100377.31;10565758;28;20047;-73
2022/11/16 07:54:56;;;;;;;25.30;7.47;;;;;;;6.03;67.37;100368.22;10578944;28;20031;-72
2022/11/16 07:59:57;;;;;;;12.32;6.38;;;;;;;6.03;67.03;100329.50;10577034;28;20040;-72
2022/11/16 08:04:58;;;;;;;10.07;6.43;;;;;;;6.36;67.82;100357.25;10584511;28;20431;-72
2022/11/16 08:09:59;;;;;;;15.48;6.95;;;;;;;6.02;67.22;100276.91;10585747;28;20047;-71
2022/11/16 08:15:00;;;;;;;14.38;6.72;;;;;;;6.36;67.96;100333.50;10586078;28;20066;-71
2022/11/16 08:20:01;;;;;;;13.10;7.22;;;;;;;6.23;68.07;100317.16;10567465;28;20047;-71
2022/11/16 08:25:02;;;;;;;11.57;6.90;;;;;;;6.26;68.23;100306.31;10584750;28;20035;-72
2022/11/16 08:30:08;;;;;;;11.77;7.20;;;;;;;6.37;68.15;100300.88;10566354;28;20081;-71
2022/11/16 08:35:09;;;;;;;10.60;7.10;;;;;;;6.51;68.21;100293.47;10580133;28;20036;-72
2022/11/16 08:40:10;;;;;;;13.50;7.93;;;;;;;6.72;68.00;100296.75;10559143;28;20511;-68
2022/11/16 08:45:11;;;;;;;9.45;7.00;;;;;;;6.88;67.86;100293.50;10548667;28;20051;-67
2022/11/16 08:50:12;;;;;;;16.20;7.57;;;;;;;6.90;68.09;100259.03;10558462;27;20047;-72
2022/11/16 08:55:13;;;;;;;14.07;7.50;;;;;;;7.27;67.39;100266.91;10577480;28;20476;-71
2022/11/16 09:00:14;;;;;;;17.15;7.18;;;;;;;7.40;66.87;100242.75;10583776;28;20031;-71
2022/11/16 09:05:15;;;;;;;14.48;7.38;;;;;;;7.61;66.92;100243.28;10583174;28;20039;-71
2022/11/16 09:10:21;;;;;;;11.68;7.28;;;;;;;7.63;66.42;100230.75;10583399;28;20039;-71
2022/11/16 09:15:22;;;;;;;17.98;8.70;;;;;;;7.76;66.86;100233.81;10582106;28;20724;-71
2022/11/16 09:20:23;;;;;;;16.10;8.07;;;;;;;7.36;66.51;100152.38;10582458;28;20122;-71
2022/11/16 09:25:23;;;;;;;13.48;8.25;;;;;;;8.00;66.60;100235.84;10583150;28;20031;-71
2022/11/16 09:30:24;;;;;;;13.90;7.95;;;;;;;8.20;66.65;100210.03;10581986;28;20047;-71
2022/11/16 09:35:25;;;;;;;10.45;7.32;;;;;;;8.61;66.62;100206.78;10581772;28;20043;-70
2022/11/16 09:40:41;;;;;;;10.25;7.40;;;;;;;8.42;66.05;100199.91;10582476;28;20525;-71
2022/11/16 09:45:56;;;;;;;10.88;7.47;;;;;;;8.30;66.38;100207.25;10582283;28;20050;-71
2022/11/16 09:51:06;;;;;;;15.65;8.30;;;;;;;8.17;67.09;100183.06;10581343;28;20051;-70
2022/11/16 09:56:16;;;;;;;14.75;7.88;;;;;;;8.01;67.13;100136.97;10581265;28;20047;-71
2022/11/16 10:01:28;;;;;;;17.15;7.28;;;;;;;8.50;66.82;100185.91;10581175;28;20040;-71
2022/11/16 10:06:46;;;;;;;13.63;7.72;;;;;;;8.77;66.09;100179.56;10580997;28;20044;-70
2022/11/16 10:12:29;;;;;;;19.33;8.55;;;;;;;8.71;67.60;100180.19;10581551;28;20126;-70
2022/11/16 10:17:54;;;;;;;10.45;7.35;;;;;;;8.77;67.04;100183.03;10580348;28;20047;-72
2022/11/16 10:23:13;;;;;;;14.90;7.38;;;;;;;8.78;67.35;100182.03;10580189;28;20051;-70
2022/11/16 10:28:23;;;;;;;12.00;6.60;;;;;;;8.31;66.99;100081.88;10579625;28;20497;-71
2022/11/16 10:33:26;;;;;;;10.57;6.43;;;;;;;8.52;66.96;100144.19;10580396;28;20042;-70
2022/11/16 10:38:32;;;;;;;11.43;8.00;;;;;;;8.63;67.35;100155.34;10580588;28;20070;-70
2022/11/16 10:43:34;;;;;;;13.18;7.30;;;;;;;8.36;67.25;100123.75;10580131;28;20288;-70
2022/11/16 10:48:40;;;;;;;12.90;7.90;;;;;;;8.38;66.89;100143.81;10579532;28;20040;-71
2022/11/16 10:53:43;;;;;;;14.27;7.72;;;;;;;7.88;67.40;100080.19;10576255;28;20036;-69
2022/11/16 10:59:14;;;;;;;15.35;7.45;;;;;;;8.26;67.60;100137.13;10557998;28;20040;-69
2022/11/16 11:04:26;;;;;;;14.70;7.82;;;;;;;8.10;68.33;100135.19;10537724;28;20503;-70
2022/11/16 11:09:31;;;;;;;12.88;7.22;;;;;;;7.97;68.18;100114.47;10536781;28;20054;-69
2022/11/16 11:14:34;;;;;;;16.67;7.90;;;;;;;7.90;68.43;100125.84;10542533;28;20067;-70
2022/11/16 11:19:35;;;;;;;11.70;7.60;;;;;;;7.86;69.17;100119.19;10536651;28;20059;-71
2022/11/16 11:24:45;;;;;;;15.98;7.80;;;;;;;7.84;69.57;100107.94;10562248;28;20486;-71
2022/11/16 11:29:52;;;;;;;15.98;7.40;;;;;;;7.88;70.06;100098.72;10580655;28;20039;-71
2022/11/16 11:34:55;;;;;;;18.73;7.90;;;;;;;7.86;69.98;100083.00;10579360;28;20073;-70
2022/11/16 11:40:24;;;;;;;15.40;7.35;;;;;;;8.05;70.83;100105.75;10585264;28;20185;-71
2022/11/16 11:46:01;;;;;;;15.15;7.78;;;;;;;7.99;70.88;100101.94;10587367;28;20069;-71
2022/11/16 11:51:25;;;;;;;15.27;8.60;;;;;;;7.96;70.88;100104.06;10586847;28;20122;-70
2022/11/16 11:56:29;;;;;;;15.15;8.30;;;;;;;7.87;71.33;100086.50;10586721;28;20542;-71
2022/11/16 12:01:48;;;;;;;14.47;9.47;;;;;;;7.44;71.51;100001.78;10585793;28;20126;-71
2022/11/16 12:07:06;;;;;;;22.33;11.10;;;;;;;7.37;73.00;100019.25;10585667;28;20277;-71
2022/11/16 12:12:33;;;;;;;20.67;10.48;;;;;;;7.28;74.43;100002.53;10585997;28;20403;-71
2022/11/16 12:17:42;;;;;;;16.73;10.48;;;;;;;7.70;73.43;100086.38;10576490;28;20039;-71
2022/11/16 12:23:26;;;;;;;11.88;8.90;;;;;;;7.63;74.86;100090.63;10575717;28;20412;-71
2022/11/16 12:28:32;;;;;;;;;;;;;;;7.55;74.35;100088.75;10554334;27;20138;-71
2022/11/16 12:33:51;;;;;;;16.92;8.75;;;;;;;6.95;74.04;100013.84;10582558;28;19923;-71
2022/11/16 12:38:52;;;;;;;28.20;14.15;;;;;;;7.27;75.01;100077.50;10585094;28;20492;-71
2022/11/16 12:44:01;;;;;;;20.50;11.95;;;;;;;7.19;75.21;100072.13;10584001;28;20039;-71
2022/11/16 12:49:42;;;;;;;12.80;9.10;;;;;;;7.18;76.92;100069.63;10583490;28;20138;-72
2022/11/16 12:55:16;;;;;;;14.70;8.90;;;;;;;7.07;78.04;100066.25;10567616;28;20048;-71
2022/11/16 13:00:17;;;;;;;;;;;;;;;6.61;78.00;99991.59;10577281;28;20110;-72
2022/11/16 13:05:21;;;;;;;15.38;9.00;;;;;;;6.77;76.59;100062.19;10584472;28;19990;-71
2022/11/16 13:10:30;;;;;;;12.82;8.57;;;;;;;6.35;78.42;100015.25;10564852;28;20035;-71
2022/11/16 13:15:37;;;;;;;16.00;7.97;;;;;;;6.53;78.38;100060.13;10583963;28;20130;-72
2022/11/16 13:20:58;;;;;;;42.03;9.88;;;;;;;6.53;79.35;100064.59;10583237;28;20062;-71
2022/11/16 13:26:09;;;;;;;15.85;9.00;;;;;;;5.90;79.44;99965.94;10579918;28;20522;-71
2022/11/16 13:35:23;;;;;;;22.60;9.02;;;;;;;5.96;78.83;100025.19;10478988;28;20487;-70
2022/11/16 13:40:29;;;;;;;27.95;9.48;;;;;;;5.90;80.54;100037.13;10448100;28;20045;-71
2022/11/16 13:45:59;;;;;;;43.22;11.48;;;;;;;5.84;82.38;100035.06;10447873;28;20048;-71
2022/11/16 13:51:07;;;;;;;47.60;14.73;;;;;;;5.68;81.85;100038.31;10442713;28;20045;-71
2022/11/16 13:56:08;;;;;;;467.30;320.80;;;;;;;5.59;81.31;100035.69;10447717;28;20060;-72
2022/11/16 14:01:14;;;;;;;404.00;236.95;;;;;;;5.44;82.31;100033.53;10448341;28;20131;-72
2022/11/16 14:06:23;;;;;;;181.40;96.43;;;;;;;5.14;83.44;100017.91;10445377;28;20135;-71
2022/11/16 14:11:37;;;;;;;219.18;113.47;;;;;;;5.05;82.81;100032.75;10439549;28;20037;-71
2022/11/16 14:16:44;;;;;;;168.98;86.55;;;;;;;4.75;83.89;100018.75;10438973;28;20049;-71
2022/11/16 14:22:06;;;;;;;145.13;71.97;;;;;;;4.09;84.78;99966.78;10442742;28;20033;-72
2022/11/16 14:27:34;;;;;;;138.75;73.55;;;;;;;4.39;85.68;100038.66;10444262;28;20138;-72
2022/11/16 14:32:44;;;;;;;137.00;67.63;;;;;;;3.78;85.36;99959.94;10444400;28;20068;-72
2022/11/16 14:37:57;;;;;;;134.20;63.67;;;;;;;4.14;85.36;100040.00;10445119;28;20176;-71
2022/11/16 14:43:05;;;;;;;136.00;71.13;;;;;;;3.95;84.88;100037.28;10433859;28;20484;-73
2022/11/16 14:48:13;;;;;;;125.22;66.28;;;;;;;3.56;85.77;99987.22;10418499;28;20041;-72
2022/11/16 14:53:18;;;;;;;145.90;78.57;;;;;;;3.06;85.25;99935.47;10418028;28;20425;-72
2022/11/16 14:58:21;;;;;;;113.10;53.15;;;;;;;3.46;85.50;100010.00;10418325;28;20094;-72
2022/11/16 15:03:25;;;;;;;101.45;46.22;;;;;;;3.44;86.06;100028.53;10418586;28;20088;-72
2022/11/16 15:08:32;;;;;;;99.38;42.13;;;;;;;3.32;87.13;100032.16;10418333;28;20069;-72
2022/11/16 15:13:33;;;;;;;106.28;49.40;;;;;;;3.00;85.95;100012.06;10417596;28;20413;-72
2022/11/16 15:18:33;;;;;;;91.75;42.58;;;;;;;2.60;86.24;99948.94;10418337;28;20044;-72
2022/11/16 15:23:46;;;;;;;151.70;69.55;;;;;;;3.03;87.00;100013.63;10417160;28;20045;-72
2022/11/16 15:28:48;;;;;;;228.18;93.28;;;;;;;2.95;85.48;100001.13;10415623;28;20038;-72
2022/11/16 15:33:49;;;;;;;289.00;117.82;;;;;;;2.77;85.74;99982.50;10414901;28;20057;-72
2022/11/16 15:38:55;;;;;;;273.42;112.50;;;;;;;2.81;86.58;99991.75;10415981;28;20509;-72
2022/11/16 15:43:59;;;;;;;454.67;180.73;;;;;;;2.80;86.98;99989.28;10415969;28;20049;-72
2022/11/16 15:49:00;;;;;;;352.37;137.23;;;;;;;2.44;86.87;99971.19;10415821;28;20429;-73
2022/11/16 15:54:23;;;;;;;358.92;137.07;;;;;;;2.35;89.25;99968.47;10412759;28;20080;-72
2022/11/16 15:59:32;;;;;;;180.23;76.18;;;;;;;1.92;89.13;99914.31;10408920;28;20519;-72
2022/11/16 16:04:32;;;;;;;132.73;57.13;;;;;;;2.36;88.25;99972.75;10404660;28;20049;-72
2022/11/16 16:09:38;;;;;;;94.43;46.47;;;;;;;2.32;89.21;99977.44;10408821;28;20478;-73
2022/11/16 16:14:39;;;;;;;83.75;43.63;;;;;;;2.16;88.57;99949.00;10410935;28;20045;-72
2022/11/16 16:19:43;;;;;;;115.78;52.67;;;;;;;1.83;89.05;99914.09;10409555;28;20041;-72
2022/11/16 16:24:45;;;;;;;115.43;53.22;;;;;;;2.01;88.74;99945.00;10412526;28;20076;-73
2022/11/16 16:29:48;;;;;;;93.68;47.05;;;;;;;2.09;88.86;99967.97;10408582;28;20049;-73
2022/11/16 16:34:50;;;;;;;44.60;25.33;;;;;;;2.14;89.34;99977.13;10386307;28;20539;-72
2022/11/16 16:39:51;;;;;;;51.63;24.58;;;;;;;1.48;90.01;99874.16;10409809;28;20402;-73
2022/11/16 16:44:52;;;;;;;36.33;20.13;;;;;;;1.62;90.13;99871.28;10402344;28;20037;-72
2022/11/16 16:49:53;;;;;;;39.92;19.92;;;;;;;2.25;90.51;99965.78;10409553;28;20036;-72
2022/11/16 16:54:54;;;;;;;52.25;21.35;;;;;;;2.26;90.48;99959.56;10412417;28;20413;-73
2022/11/16 16:59:55;;;;;;;34.70;20.33;;;;;;;2.14;89.79;99950.09;10408264;28;20061;-72
2022/11/16 17:04:55;;;;;;;30.55;15.20;;;;;;;2.15;89.77;99938.63;10409539;28;20043;-72
2022/11/16 17:09:56;;;;;;;47.22;19.42;;;;;;;2.02;89.64;99904.75;10407813;28;20041;-72
2022/11/16 17:14:57;;;;;;;43.78;17.77;;;;;;;1.42;89.23;99820.50;10411266;28;20140;-73
2022/11/16 17:19:58;;;;;;;51.45;23.02;;;;;;;2.07;89.83;99915.69;10411548;28;20124;-72
2022/11/16 17:24:59;;;;;;;44.47;20.95;;;;;;;1.96;90.02;99920.97;10412260;28;20078;-72
2022/11/16 17:30:00;;;;;;;44.28;21.55;;;;;;;1.55;90.64;99863.06;10410715;28;20090;-72
2022/11/16 17:35:00;;;;;;;34.03;17.60;;;;;;;1.68;90.13;99899.59;10406322;28;20053;-72
2022/11/16 17:40:01;;;;;;;43.38;21.23;;;;;;;1.56;90.04;99887.47;10404185;28;20041;-72
2022/11/16 17:45:03;;;;;;;38.03;20.42;;;;;;;1.42;90.29;99861.56;10408123;28;20420;-72
2022/11/16 17:50:04;;;;;;;51.63;19.52;;;;;;;1.56;90.33;99887.47;10407529;28;20387;-72
2022/11/16 17:55:05;;;;;;;32.30;17.95;;;;;;;1.58;90.46;99898.66;10412444;28;20481;-72
2022/11/16 18:00:07;;;;;;;37.08;17.40;;;;;;;1.44;90.65;99883.22;10410066;28;20037;-73
2022/11/16 18:05:08;;;;;;;32.13;17.77;;;;;;;1.33;90.93;99845.63;10412366;28;20048;-72
2022/11/16 18:10:09;;;;;;;36.25;18.25;;;;;;;1.66;91.04;99874.47;10413059;28;20132;-72
2022/11/16 18:15:10;;;;;;;32.53;17.15;;;;;;;1.58;90.80;99846.28;10412402;28;20041;-72
2022/11/16 18:20:11;;;;;;;30.00;17.48;;;;;;;1.40;90.83;99777.09;10416049;28;20128;-72
2022/11/16 18:25:12;;;;;;;41.05;19.42;;;;;;;1.57;90.93;99780.00;10419749;28;20461;-72
2022/11/16 18:30:13;;;;;;;34.03;18.75;;;;;;;2.10;90.98;99834.22;10419044;28;20128;-72
2022/11/16 18:35:14;;;;;;;44.60;19.63;;;;;;;1.69;90.95;99759.84;10419080;28;20060;-72
2022/11/16 18:40:16;;;;;;;31.75;18.23;;;;;;;2.24;91.46;99831.31;10419868;28;20386;-73
2022/11/16 18:45:17;;;;;;;34.85;18.65;;;;;;;2.35;91.37;99816.44;10416856;28;20483;-73
2022/11/16 18:50:19;;;;;;;26.30;15.30;;;;;;;2.73;91.92;99856.00;10418473;28;20053;-75
2022/11/16 18:55:20;;;;;;;33.30;18.30;;;;;;;2.90;92.11;99841.47;10418136;28;20041;-74
2022/11/16 19:00:21;;;;;;;34.90;19.05;;;;;;;2.93;92.28;99828.09;10418377;28;20546;-74
2022/11/16 19:05:21;;;;;;;29.25;18.33;;;;;;;3.20;92.38;99832.75;10418704;28;20069;-74
2022/11/16 19:10:22;;;;;;;29.25;17.63;;;;;;;2.79;92.14;99738.44;10417550;28;20485;-74
2022/11/16 19:15:24;;;;;;;31.58;17.77;;;;;;;3.41;92.01;99816.06;10416624;28;20431;-74
2022/11/16 19:20:25;;;;;;;30.38;14.77;;;;;;;2.88;91.99;99703.53;10417957;28;20409;-72
2022/11/16 19:25:25;;;;;;;35.97;19.05;;;;;;;3.46;91.80;99792.88;10417795;28;20049;-73
2022/11/16 19:30:26;;;;;;;39.78;21.83;;;;;;;3.26;91.66;99750.03;10416279;28;20441;-73
2022/11/16 19:35:27;;;;;;;36.80;21.27;;;;;;;3.46;92.42;99782.38;10417488;28;20061;-73
2022/11/16 19:40:28;;;;;;;26.50;17.95;;;;;;;3.62;92.58;99803.69;10416474;28;20070;-73
2022/11/16 19:45:28;;;;;;;35.72;19.33;;;;;;;3.10;92.29;99715.59;10417015;28;20057;-74
2022/11/16 19:50:29;;;;;;;29.02;17.65;;;;;;;3.61;92.63;99795.94;10417930;28;20041;-73
2022/11/16 19:55:30;;;;;;;23.70;15.43;;;;;;;3.65;92.93;99813.09;10416349;28;20132;-73
2022/11/16 20:00:31;;;;;;;25.60;14.93;;;;;;;3.63;92.65;99796.63;10416029;28;20041;-74
2022/11/16 20:05:32;;;;;;;24.60;15.35;;;;;;;3.52;92.49;99808.09;10414622;28;20041;-74
2022/11/16 20:10:33;;;;;;;25.30;16.05;;;;;;;3.40;92.01;99803.91;10415125;28;20033;-73
2022/11/16 20:15:33;;;;;;;25.27;16.30;;;;;;;3.41;93.29;99816.94;10414970;28;20041;-74
2022/11/16 20:20:34;;;;;;;24.52;15.95;;;;;;;3.40;92.79;99799.50;10415408;28;20148;-73
2022/11/16 20:25:39;;;;;;;24.63;16.38;;;;;;;3.55;93.79;99812.25;10414552;28;20041;-73
2022/11/16 20:30:45;;;;;;;22.52;15.13;;;;;;;3.59;93.43;99805.72;10415073;28;20124;-73
2022/11/16 20:35:45;;;;;;;25.52;15.68;;;;;;;3.83;92.60;99811.44;10413227;28;20115;-74
2022/11/16 20:40:46;;;;;;;21.13;14.57;;;;;;;3.70;92.61;99773.28;10413433;28;20099;-74
2022/11/16 20:45:51;;;;;;;21.60;14.43;;;;;;;4.02;92.93;99805.34;10412899;28;20111;-73
2022/11/16 20:50:53;;;;;;;26.27;14.55;;;;;;;4.04;92.49;99802.59;10414108;28;20124;-74
2022/11/16 20:55:55;;;;;;;24.88;14.60;;;;;;;3.89;92.47;99760.97;10414566;28;20477;-73
2022/11/16 21:01:00;;;;;;;22.98;14.85;;;;;;;4.04;92.78;99778.94;10413923;28;20044;-73
2022/11/16 21:06:02;;;;;;;25.38;13.77;;;;;;;4.19;92.61;99822.22;10414375;28;20041;-74
2022/11/16 21:11:14;;;;;;;21.13;14.85;;;;;;;3.69;93.73;99721.72;10414150;28;20039;-74
2022/11/16 21:16:15;;;;;;;24.40;14.80;;;;;;;4.23;92.90;99802.56;10413573;28;20043;-74
2022/11/16 21:21:16;;;;;;;24.73;13.77;;;;;;;4.18;93.62;99783.75;10414416;28;20128;-74
2022/11/16 21:26:20;;;;;;;31.23;14.70;;;;;;;3.93;93.82;99724.72;10413978;28;20525;-74
2022/11/16 21:31:26;;;;;;;19.60;14.45;;;;;;;4.36;94.44;99791.75;10413108;28;20053;-74
2022/11/16 21:36:29;;;;;;;18.70;13.18;;;;;;;4.40;93.28;99808.06;10413023;28;20115;-74
2022/11/16 21:41:30;;;;;;;20.60;14.27;;;;;;;4.46;93.80;99797.84;10412490;28;20042;-74
2022/11/16 21:46:31;;;;;;;21.63;14.32;;;;;;;4.53;93.80;99798.91;10412953;28;20052;-74
2022/11/16 21:51:32;;;;;;;32.92;20.30;;;;;;;4.27;93.63;99737.38;10412894;28;20053;-74
2022/11/16 21:56:33;;;;;;;17.73;12.77;;;;;;;4.60;92.88;99785.19;10419375;28;20528;-74
2022/11/16 22:01:58;;;;;;;22.10;14.40;;;;;;;4.71;93.45;99796.38;10421576;28;20056;-74
2022/11/16 22:12:13;;;;;;;18.92;13.38;;;;;;;4.75;93.36;99781.13;10419850;28;20128;-74
2022/11/16 22:17:14;;;;;;;14.65;11.48;;;;;;;4.78;93.77;99776.38;10420305;28;20124;-74
2022/11/16 22:22:15;;;;;;;21.27;12.77;;;;;;;4.80;93.45;99768.34;10420681;28;20048;-74
2022/11/16 22:27:17;;;;;;;19.77;12.68;;;;;;;4.87;93.60;99772.06;10419207;28;20102;-74
2022/11/16 22:32:18;;;;;;;22.35;13.10;;;;;;;4.91;93.46;99788.41;10419303;28;20203;-74
2022/11/16 22:37:19;;;;;;;15.52;12.88;;;;;;;3.99;93.82;99634.81;10419518;28;20510;-74
2022/11/16 22:42:20;;;;;;;23.80;13.10;;;;;;;4.96;94.03;99789.59;10420148;28;20132;-74
2022/11/16 22:47:20;;;;;;;27.48;17.05;;;;;;;4.87;93.02;99787.84;10419389;28;20516;-74
2022/11/16 22:52:21;;;;;;;25.60;16.90;;;;;;;4.60;93.14;99751.00;10418249;28;20041;-74
2022/11/16 22:57:22;;;;;;;24.10;16.48;;;;;;;4.76;93.34;99770.47;10418243;28;20120;-74
2022/11/16 23:02:23;;;;;;;33.40;15.05;;;;;;;4.73;93.18;99759.41;10418163;28;20042;-74
2022/11/16 23:07:23;;;;;;;33.05;17.95;;;;;;;4.63;93.35;99735.72;10417805;28;20390;-74
2022/11/16 23:17:44;;;;;;;25.67;15.70;;;;;;;4.81;93.29;99754.22;10417871;28;20071;-74
2022/11/16 23:28:09;;;;;;;19.10;13.45;;;;;;;4.90;93.98;99757.78;10416984;28;20045;-74
2022/11/16 23:33:10;;;;;;;18.85;13.10;;;;;;;4.49;93.44;99678.38;10417113;28;20279;-73
2022/11/16 23:38:11;;;;;;;22.70;14.32;;;;;;;4.97;93.66;99754.44;10417357;28;20046;-74
2022/11/16 23:48:31;;;;;;;17.67;13.02;;;;;;;4.56;94.24;99676.78;10417076;28;20076;-73
2022/11/16 23:53:31;;;;;;;24.08;14.30;;;;;;;5.00;94.17;99763.84;10416495;28;20462;-74
2022/11/16 23:58:32;;;;;;;21.92;14.98;;;;;;;5.12;94.43;99759.22;10415868;28;20042;-74
